createdAt,value
2019-03-19T00:01:57.403Z,2.71
2019-03-19T00:04:28.826Z,2.76
2019-03-19T00:06:59.098Z,2.75
2019-03-19T00:09:29.438Z,2.69
2019-03-19T00:11:59.928Z,2.75
2019-03-19T00:14:31.208Z,2.72
2019-03-19T00:17:02.016Z,2.69
2019-03-19T00:19:32.283Z,2.66
2019-03-19T00:22:02.613Z,2.57
2019-03-19T00:24:33.530Z,2.63
2019-03-19T00:27:03.839Z,2.69
2019-03-19T00:29:35.221Z,2.57
2019-03-19T00:32:05.927Z,2.60
2019-03-19T00:34:38.632Z,2.53
2019-03-19T00:37:09.988Z,2.63
2019-03-19T00:39:41.754Z,2.63
2019-03-19T00:42:12.066Z,2.56
2019-03-19T00:44:42.382Z,2.55
2019-03-19T00:47:12.614Z,2.58
2019-03-19T00:49:42.691Z,2.47
2019-03-19T00:52:13.383Z,2.40
2019-03-19T00:54:43.827Z,2.42
2019-03-19T00:57:14.042Z,2.36
2019-03-19T00:59:44.419Z,2.36
2019-03-19T01:02:14.599Z,2.28
2019-03-19T01:04:44.889Z,2.31
2019-03-19T01:07:15.053Z,2.30
2019-03-19T01:09:45.707Z,2.25
2019-03-19T01:12:15.840Z,2.22
2019-03-19T01:14:48.469Z,2.19
2019-03-19T01:17:20.034Z,2.18
2019-03-19T01:19:50.290Z,2.24
2019-03-19T01:22:20.506Z,2.21
2019-03-19T01:24:51.819Z,2.10
2019-03-19T01:27:22.086Z,2.09
2019-03-19T01:29:53.573Z,2.05
2019-03-19T01:32:25.257Z,2.01
2019-03-19T01:34:55.500Z,1.89
2019-03-19T01:37:26.085Z,1.87
2019-03-19T01:39:56.724Z,1.81
2019-03-19T01:42:27.246Z,1.68
2019-03-19T01:44:57.460Z,1.63
2019-03-19T01:47:27.979Z,1.78
2019-03-19T01:49:58.416Z,1.69
2019-03-19T01:52:30.217Z,1.70
2019-03-19T01:55:00.834Z,1.60
2019-03-19T01:57:31.319Z,1.67
2019-03-19T02:00:01.998Z,1.63
2019-03-19T02:02:32.243Z,1.58
2019-03-19T02:05:02.838Z,1.58
2019-03-19T02:07:34.128Z,1.55
2019-03-19T02:10:04.521Z,1.53
2019-03-19T02:12:34.839Z,1.47
2019-03-19T02:15:05.353Z,1.49
2019-03-19T02:17:36.865Z,1.46
2019-03-19T02:20:09.000Z,1.59
2019-03-19T02:22:39.462Z,1.65
2019-03-19T02:25:10.868Z,1.64
2019-03-19T02:27:41.593Z,1.68
2019-03-19T02:30:12.776Z,1.76
2019-03-19T02:32:43.453Z,1.79
2019-03-19T02:35:15.113Z,1.70
2019-03-19T02:37:45.319Z,1.76
2019-03-19T02:40:15.726Z,1.80
2019-03-19T02:42:46.094Z,1.83
2019-03-19T02:45:16.355Z,1.85
2019-03-19T02:47:46.478Z,1.75
2019-03-19T02:50:17.220Z,1.73
2019-03-19T02:52:47.513Z,1.74
2019-03-19T02:55:17.765Z,1.78
2019-03-19T02:57:52.921Z,1.81
2019-03-19T03:01:14.247Z,1.96
2019-03-19T03:03:49.647Z,1.37
2019-03-19T03:06:31.859Z,2.07
2019-03-19T03:09:04.022Z,2.13
2019-03-19T03:11:34.427Z,2.24
2019-03-19T03:14:07.019Z,2.26
2019-03-19T03:16:37.913Z,2.28
2019-03-19T03:19:08.283Z,2.27
2019-03-19T03:21:39.574Z,2.40
2019-03-19T03:24:09.826Z,2.58
2019-03-19T03:26:47.677Z,2.54
2019-03-19T03:29:12.044Z,2.62
2019-03-19T03:31:42.669Z,2.62
2019-03-19T03:34:13.022Z,2.50
2019-03-19T03:36:43.228Z,2.57
2019-03-19T03:39:13.667Z,2.63
2019-03-19T03:41:43.793Z,2.66
2019-03-19T03:44:14.230Z,2.68
2019-03-19T03:46:44.493Z,2.70
2019-03-19T03:49:14.814Z,2.66
2019-03-19T03:51:45.124Z,2.70
2019-03-19T03:54:15.773Z,2.68
2019-03-19T03:56:46.342Z,2.54
2019-03-19T03:59:18.064Z,2.42
2019-03-19T04:01:48.866Z,2.27
2019-03-19T04:04:19.208Z,2.15
2019-03-19T04:06:49.700Z,2.23
2019-03-19T04:09:20.264Z,2.10
2019-03-19T04:11:50.473Z,2.12
2019-03-19T04:14:21.827Z,2.28
2019-03-19T04:16:52.081Z,2.54
2019-03-19T04:19:22.636Z,2.57
2019-03-19T04:21:53.978Z,2.66
2019-03-19T04:24:25.049Z,1.99
2019-03-19T04:26:56.790Z,2.57
2019-03-19T04:29:27.158Z,1.91
2019-03-19T04:31:57.714Z,2.63
2019-03-19T04:34:28.474Z,2.64
2019-03-19T04:36:59.241Z,2.11
2019-03-19T04:39:29.473Z,2.82
2019-03-19T04:41:59.862Z,2.90
2019-03-19T04:44:30.223Z,2.83
2019-03-19T04:47:00.459Z,2.36
2019-03-19T04:49:30.990Z,2.87
2019-03-19T04:52:02.554Z,3.01
2019-03-19T04:54:33.269Z,3.08
2019-03-19T04:57:04.236Z,3.09
2019-03-19T04:59:36.020Z,3.02
2019-03-19T05:02:07.161Z,2.96
2019-03-19T05:04:39.199Z,3.11
2019-03-19T05:07:10.541Z,3.18
2019-03-19T05:09:40.861Z,3.23
2019-03-19T05:12:11.244Z,3.08
2019-03-19T05:14:41.981Z,2.78
2019-03-19T05:17:13.628Z,2.62
2019-03-19T05:19:44.407Z,2.45
2019-03-19T05:22:16.892Z,2.30
2019-03-19T05:24:47.198Z,2.18
2019-03-19T05:27:17.506Z,2.10
2019-03-19T05:29:47.871Z,1.94
2019-03-19T05:32:41.509Z,1.80
2019-03-19T05:35:11.834Z,1.80
2019-03-19T05:37:42.517Z,1.64
2019-03-19T05:40:13.615Z,1.74
2019-03-19T05:42:50.041Z,1.81
2019-03-19T05:45:20.378Z,1.87
2019-03-19T05:47:51.272Z,1.98
2019-03-19T05:50:21.936Z,2.24
2019-03-19T05:52:52.631Z,2.36
2019-03-19T05:55:23.706Z,2.38
2019-03-19T05:57:54.042Z,2.58
2019-03-19T06:00:25.390Z,2.39
2019-03-19T06:02:56.197Z,2.15
2019-03-19T06:05:26.783Z,2.34
2019-03-19T06:07:57.489Z,2.43
2019-03-19T06:10:28.095Z,2.57
2019-03-19T06:12:58.748Z,2.47
2019-03-19T06:15:32.643Z,2.55
2019-03-19T06:18:04.324Z,2.88
2019-03-19T06:20:35.429Z,2.71
2019-03-19T06:23:07.739Z,2.81
2019-03-19T06:25:38.693Z,2.35
2019-03-19T06:28:09.342Z,3.04
2019-03-19T06:30:41.349Z,3.06
2019-03-19T06:33:11.799Z,3.19
2019-03-19T06:35:42.560Z,3.28
2019-03-19T06:38:14.129Z,3.39
2019-03-19T06:40:44.307Z,3.64
2019-03-19T06:43:14.620Z,3.56
2019-03-19T06:45:45.268Z,3.61
2019-03-19T06:48:19.472Z,3.52
2019-03-19T06:50:50.264Z,3.53
2019-03-19T06:53:20.818Z,3.56
2019-03-19T06:55:51.873Z,3.45
2019-03-19T06:58:23.468Z,3.45
2019-03-19T07:00:56.922Z,3.35
2019-03-19T07:03:27.261Z,3.36
2019-03-19T07:06:00.815Z,2.70
2019-03-19T07:08:32.613Z,2.65
2019-03-19T07:11:04.193Z,3.31
2019-03-19T07:13:34.764Z,3.32
2019-03-19T07:16:08.872Z,3.47
2019-03-19T07:18:40.332Z,3.55
2019-03-19T07:21:10.903Z,3.62
2019-03-19T07:23:41.110Z,3.70
2019-03-19T07:26:12.229Z,3.76
2019-03-19T07:28:42.462Z,3.82
2019-03-19T07:31:14.130Z,3.88
2019-03-19T07:33:44.354Z,4.04
2019-03-19T07:36:15.246Z,4.07
2019-03-19T07:38:45.849Z,4.18
2019-03-19T07:41:17.602Z,4.24
2019-03-19T07:43:48.470Z,4.33
2019-03-19T07:46:18.772Z,4.41
2019-03-19T07:48:49.058Z,4.43
2019-03-19T07:51:22.661Z,4.58
2019-03-19T07:53:52.968Z,4.75
2019-03-19T07:56:24.950Z,4.74
2019-03-19T07:58:55.329Z,4.88
2019-03-19T08:01:26.843Z,4.32
2019-03-19T08:04:00.757Z,4.95
2019-03-19T08:06:32.739Z,5.12
2019-03-19T08:09:09.109Z,5.45
2019-03-19T08:11:40.571Z,5.39
2019-03-19T08:14:14.152Z,5.74
2019-03-19T08:16:45.074Z,5.53
2019-03-19T08:19:15.760Z,5.23
2019-03-19T08:21:46.359Z,5.28
2019-03-19T08:24:18.726Z,5.10
2019-03-19T08:26:49.368Z,5.17
2019-03-19T08:29:19.933Z,5.17
2019-03-19T08:31:52.496Z,5.43
2019-03-19T08:34:23.442Z,5.42
2019-03-19T08:36:53.847Z,5.56
2019-03-19T08:39:24.274Z,5.74
2019-03-19T08:41:56.040Z,5.37
2019-03-19T08:44:29.469Z,5.41
2019-03-19T08:47:01.428Z,5.42
2019-03-19T08:49:31.987Z,5.38
2019-03-19T08:52:05.090Z,5.39
2019-03-19T08:54:35.431Z,5.02
2019-03-19T08:57:08.364Z,5.69
2019-03-19T08:59:39.497Z,5.78
2019-03-19T09:02:10.702Z,5.66
2019-03-19T09:04:42.451Z,5.96
2019-03-19T09:07:12.761Z,6.00
2019-03-19T09:09:46.582Z,5.90
2019-03-19T09:12:17.471Z,6.42
2019-03-19T09:14:47.856Z,7.18
2019-03-19T09:17:18.831Z,7.18
2019-03-19T09:19:49.295Z,7.34
2019-03-19T09:22:19.938Z,7.41
2019-03-19T09:24:52.044Z,7.41
2019-03-19T09:27:22.531Z,6.74
2019-03-19T09:29:54.306Z,6.74
2019-03-19T09:32:26.331Z,6.80
2019-03-19T09:34:57.055Z,6.59
2019-03-19T09:37:27.497Z,6.82
2019-03-19T09:39:57.825Z,6.82
2019-03-19T09:42:28.891Z,7.08
2019-03-19T09:44:59.860Z,6.60
2019-03-19T09:47:30.425Z,6.58
2019-03-19T09:50:00.700Z,6.58
2019-03-19T09:52:32.539Z,6.19
2019-03-19T09:55:05.539Z,6.19
2019-03-19T09:57:35.976Z,6.43
2019-03-19T10:00:11.095Z,6.53
2019-03-19T10:02:41.580Z,6.53
2019-03-19T10:05:13.238Z,6.55
2019-03-19T10:07:43.742Z,6.06
2019-03-19T10:10:15.148Z,7.37
2019-03-19T10:12:46.285Z,7.37
2019-03-19T10:15:16.780Z,7.99
2019-03-19T10:17:47.401Z,7.50
2019-03-19T10:20:18.292Z,8.11
2019-03-19T10:22:52.624Z,7.82
2019-03-19T10:25:22.899Z,8.16
2019-03-19T10:27:53.849Z,7.96
2019-03-19T10:30:24.627Z,7.93
2019-03-19T10:32:55.281Z,8.13
2019-03-19T10:35:28.482Z,7.37
2019-03-19T10:37:59.192Z,7.37
2019-03-19T10:40:29.507Z,7.60
2019-03-19T10:43:01.041Z,8.52
2019-03-19T10:45:32.148Z,8.29
2019-03-19T10:48:04.459Z,8.22
2019-03-19T10:50:35.402Z,7.74
2019-03-19T10:53:07.033Z,7.76
2019-03-19T10:55:38.253Z,7.86
2019-03-19T10:58:11.224Z,7.20
2019-03-19T11:00:41.623Z,7.20
2019-03-19T11:03:13.759Z,7.32
2019-03-19T11:05:44.812Z,7.32
2019-03-19T11:08:16.420Z,7.35
2019-03-19T11:10:47.295Z,6.99
2019-03-19T11:13:17.948Z,6.68
2019-03-19T11:15:48.957Z,6.77
2019-03-19T11:18:20.359Z,6.77
2019-03-19T11:20:50.580Z,6.86
2019-03-19T11:23:20.892Z,6.93
2019-03-19T11:25:54.636Z,6.77
2019-03-19T11:28:24.097Z,6.77
2019-03-19T11:30:54.336Z,6.91
2019-03-19T11:33:25.493Z,6.91
2019-03-19T11:35:56.261Z,7.12
2019-03-19T11:38:27.911Z,7.12
2019-03-19T11:40:59.327Z,7.62
2019-03-19T11:43:29.682Z,7.51
2019-03-19T11:46:01.238Z,7.70
2019-03-19T11:48:34.555Z,7.70
2019-03-19T11:51:06.087Z,7.95
2019-03-19T11:53:36.660Z,8.46
2019-03-19T11:56:07.392Z,8.66
2019-03-19T11:58:37.649Z,9.06
2019-03-19T12:01:09.266Z,8.46
2019-03-19T12:03:40.793Z,8.49
2019-03-19T12:06:13.900Z,8.94
2019-03-19T12:08:46.539Z,8.85
2019-03-19T12:11:21.033Z,8.11
2019-03-19T12:13:52.736Z,7.60
2019-03-19T12:16:23.450Z,8.19
2019-03-19T12:18:55.119Z,8.17
2019-03-19T12:21:26.484Z,8.39
2019-03-19T12:23:56.954Z,8.37
2019-03-19T12:26:28.616Z,9.13
2019-03-19T12:28:59.990Z,8.78
2019-03-19T12:31:31.582Z,9.02
2019-03-19T12:34:01.647Z,8.84
2019-03-19T12:36:32.260Z,8.75
2019-03-19T12:39:02.789Z,9.20
2019-03-19T12:41:33.466Z,9.90
2019-03-19T12:44:05.592Z,10.26
2019-03-19T12:46:35.950Z,10.39
2019-03-19T12:49:06.672Z,10.32
2019-03-19T12:51:36.900Z,9.50
2019-03-19T12:54:07.145Z,9.09
2019-03-19T12:56:37.647Z,9.58
2019-03-19T12:59:08.147Z,9.60
2019-03-19T13:01:39.309Z,9.52
2019-03-19T13:04:10.616Z,9.49
2019-03-19T13:06:41.058Z,9.58
2019-03-19T13:09:17.552Z,10.03
2019-03-19T13:11:49.143Z,9.80
2019-03-19T13:14:21.957Z,9.51
2019-03-19T13:16:53.236Z,9.52
2019-03-19T13:19:24.848Z,10.07
2019-03-19T13:21:55.151Z,10.16
2019-03-19T13:24:25.989Z,10.64
2019-03-19T13:26:56.759Z,9.80
2019-03-19T13:29:27.170Z,9.18
2019-03-19T13:31:57.416Z,9.68
2019-03-19T13:34:28.242Z,10.19
2019-03-19T13:36:58.694Z,10.70
2019-03-19T13:39:29.129Z,10.31
2019-03-19T13:41:59.526Z,10.38
2019-03-19T13:44:30.076Z,9.82
2019-03-19T13:47:02.083Z,10.31
2019-03-19T13:49:34.441Z,9.67
2019-03-19T13:52:05.100Z,9.07
2019-03-19T13:54:35.363Z,10.04
2019-03-19T13:57:05.694Z,10.06
2019-03-19T13:59:36.396Z,9.70
2019-03-19T14:02:06.825Z,9.52
2019-03-19T14:04:37.122Z,9.92
2019-03-19T14:07:08.279Z,9.14
2019-03-19T14:09:38.663Z,9.50
2019-03-19T14:12:09.149Z,9.67
2019-03-19T14:14:39.826Z,10.04
2019-03-19T14:17:10.074Z,9.95
2019-03-19T14:19:40.613Z,9.30
2019-03-19T14:22:11.171Z,9.38
2019-03-19T14:24:41.523Z,9.37
2019-03-19T14:27:11.686Z,9.17
2019-03-19T14:29:42.297Z,9.27
2019-03-19T14:32:12.426Z,9.14
2019-03-19T14:34:42.671Z,8.82
2019-03-19T14:37:13.281Z,9.31
2019-03-19T14:39:43.581Z,9.68
2019-03-19T14:42:13.829Z,10.05
2019-03-19T14:44:44.354Z,9.92
2019-03-19T14:47:14.716Z,9.88
2019-03-19T14:49:47.737Z,8.53
2019-03-19T14:52:17.271Z,8.73
2019-03-19T14:54:47.545Z,9.19
2019-03-19T14:57:18.127Z,9.09
2019-03-19T14:59:48.941Z,9.16
2019-03-19T15:02:19.589Z,9.45
2019-03-19T15:04:50.116Z,9.15
2019-03-19T15:07:20.932Z,9.12
2019-03-19T15:09:51.134Z,9.00
2019-03-19T15:12:21.339Z,9.12
2019-03-19T15:14:52.046Z,9.36
2019-03-19T15:17:22.511Z,9.14
2019-03-19T15:19:52.825Z,8.48
2019-03-19T15:22:32.222Z,8.96
2019-03-19T15:24:56.241Z,9.33
2019-03-19T15:27:28.898Z,9.30
2019-03-19T15:29:59.733Z,9.30
2019-03-19T15:32:30.620Z,8.74
2019-03-19T15:35:01.883Z,8.29
2019-03-19T15:37:36.795Z,8.31
2019-03-19T15:40:09.250Z,8.23
2019-03-19T15:42:40.414Z,8.30
2019-03-19T15:45:11.736Z,8.38
2019-03-19T15:47:42.763Z,8.50
2019-03-19T15:50:15.194Z,8.32
2019-03-19T15:52:46.193Z,8.11
2019-03-19T15:55:17.276Z,8.22
2019-03-19T15:57:48.065Z,8.18
2019-03-19T16:00:18.973Z,8.35
2019-03-19T16:02:52.222Z,8.28
2019-03-19T16:05:22.916Z,8.36
2019-03-19T16:07:54.752Z,8.21
2019-03-19T16:10:26.300Z,7.84
2019-03-19T16:13:00.019Z,8.46
2019-03-19T16:15:33.146Z,8.65
2019-03-19T16:18:07.308Z,8.71
2019-03-19T16:20:52.662Z,8.85
2019-03-19T16:23:24.515Z,8.60
2019-03-19T16:25:56.411Z,8.90
2019-03-19T16:28:28.179Z,9.30
2019-03-19T16:31:13.761Z,9.59
2019-03-19T16:33:47.710Z,9.72
2019-03-19T16:36:18.823Z,9.85
2019-03-19T16:38:49.764Z,10.00
2019-03-19T16:41:31.270Z,10.02
2019-03-19T16:44:02.744Z,9.97
2019-03-19T16:46:35.723Z,10.03
2019-03-19T16:49:10.785Z,10.00
2019-03-19T16:51:42.928Z,9.98
2019-03-19T16:54:19.166Z,9.97
2019-03-19T16:56:54.556Z,9.94
2019-03-19T16:59:29.021Z,9.93
2019-03-19T17:02:06.426Z,9.80
2019-03-19T17:04:48.525Z,9.73
2019-03-19T17:07:21.793Z,9.71
2019-03-19T17:09:54.296Z,9.71
2019-03-19T17:12:27.391Z,9.74
2019-03-19T17:14:58.431Z,9.67
2019-03-19T17:17:29.579Z,9.61
2019-03-19T17:20:00.477Z,9.60
2019-03-19T17:22:31.314Z,9.63
2019-03-19T17:25:03.951Z,9.62
2019-03-19T17:27:35.440Z,9.55
2019-03-19T17:30:12.410Z,9.57
2019-03-19T17:32:46.180Z,9.52
2019-03-19T17:35:17.797Z,9.50
2019-03-19T17:37:49.650Z,9.44
2019-03-19T17:40:20.493Z,9.38
2019-03-19T17:42:51.964Z,9.30
2019-03-19T17:45:25.368Z,9.37
2019-03-19T17:48:02.588Z,9.36
2019-03-19T17:50:33.561Z,9.41
2019-03-19T17:53:10.374Z,9.41
2019-03-19T17:55:43.744Z,9.37
2019-03-19T17:58:15.183Z,9.38
2019-03-19T18:00:48.139Z,9.42
2019-03-19T18:03:19.634Z,9.43
2019-03-19T18:06:10.224Z,9.42
2019-03-19T18:08:41.304Z,9.43
2019-03-19T18:11:12.350Z,9.35
2019-03-19T18:13:48.025Z,9.33
2019-03-19T18:16:20.629Z,9.32
2019-03-19T18:18:51.818Z,9.30
2019-03-19T18:21:22.986Z,9.29
2019-03-19T18:23:54.488Z,9.25
2019-03-19T18:26:25.819Z,9.21
2019-03-19T18:28:56.973Z,9.16
2019-03-19T18:31:28.728Z,9.16
2019-03-19T18:34:09.708Z,9.15
2019-03-19T18:36:33.440Z,9.11
2019-03-19T18:39:17.595Z,9.02
2019-03-19T18:41:51.989Z,8.97
2019-03-19T18:44:23.240Z,8.93
2019-03-19T18:46:57.062Z,8.91
2019-03-19T18:49:28.380Z,8.90
2019-03-19T18:52:06.664Z,8.94
2019-03-19T18:54:42.574Z,8.98
2019-03-19T18:57:16.047Z,8.96
2019-03-19T18:59:47.740Z,8.97
2019-03-19T19:02:19.363Z,8.94
2019-03-19T19:04:50.308Z,8.93
2019-03-19T19:07:21.595Z,8.94
2019-03-19T19:09:52.383Z,8.91
2019-03-19T19:12:23.847Z,8.86
2019-03-19T19:14:54.868Z,8.87
2019-03-19T19:17:25.959Z,8.87
2019-03-19T19:19:57.930Z,8.84
2019-03-19T19:22:28.652Z,8.83
2019-03-19T19:25:00.835Z,8.79
2019-03-19T19:27:31.846Z,8.82
2019-03-19T19:30:05.877Z,8.79
2019-03-19T19:32:37.260Z,8.76
2019-03-19T19:35:09.252Z,8.76
2019-03-19T19:37:41.296Z,8.79
2019-03-19T19:40:13.862Z,8.80
2019-03-19T19:42:45.127Z,8.82
2019-03-19T19:45:16.811Z,8.81
2019-03-19T19:47:48.384Z,8.81
2019-03-19T19:50:19.574Z,8.82
2019-03-19T19:52:50.649Z,8.79
2019-03-19T19:55:23.080Z,8.71
2019-03-19T19:57:54.670Z,8.70
2019-03-19T20:00:25.773Z,8.56
2019-03-19T20:02:58.397Z,8.57
2019-03-19T20:05:29.503Z,8.60
2019-03-19T20:08:01.499Z,8.56
2019-03-19T20:10:32.218Z,8.51
2019-03-19T20:13:03.327Z,8.43
2019-03-19T20:15:34.374Z,8.35
2019-03-19T20:18:06.213Z,8.31
2019-03-19T20:20:36.728Z,8.21
2019-03-19T20:23:07.618Z,8.12
2019-03-19T20:25:38.148Z,8.12
2019-03-19T20:28:08.533Z,7.96
2019-03-19T20:30:39.362Z,7.83
2019-03-19T20:33:10.068Z,7.95
2019-03-19T20:35:40.466Z,7.97
2019-03-19T20:38:10.695Z,7.98
2019-03-19T20:40:41.079Z,7.93
2019-03-19T20:43:11.754Z,7.89
2019-03-19T20:45:42.733Z,7.89
2019-03-19T20:48:12.925Z,7.82
2019-03-19T20:50:43.669Z,7.43
2019-03-19T20:53:14.285Z,7.43
2019-03-19T20:55:44.673Z,7.33
2019-03-19T20:58:15.455Z,7.14
2019-03-19T21:00:45.819Z,6.46
2019-03-19T21:03:16.184Z,6.46
2019-03-19T21:05:46.566Z,7.03
2019-03-19T21:08:17.189Z,7.03
2019-03-19T21:10:48.062Z,6.94
2019-03-19T21:13:20.390Z,6.94
2019-03-19T21:15:50.885Z,6.89
2019-03-19T21:18:21.459Z,6.76
2019-03-19T21:20:52.489Z,6.76
2019-03-19T21:23:22.874Z,6.66
2019-03-19T21:25:53.244Z,6.63
2019-03-19T21:28:23.434Z,6.58
2019-03-19T21:30:54.104Z,5.83
2019-03-19T21:33:24.428Z,6.46
2019-03-19T21:35:54.883Z,6.40
2019-03-19T21:38:25.573Z,6.28
2019-03-19T21:40:57.271Z,6.19
2019-03-19T21:43:29.218Z,6.13
2019-03-19T21:45:59.649Z,5.41
2019-03-19T21:48:30.125Z,6.06
2019-03-19T21:51:00.846Z,6.03
2019-03-19T21:53:31.257Z,5.96
2019-03-19T21:56:01.522Z,5.84
2019-03-19T21:58:33.180Z,5.78
2019-03-19T22:01:03.738Z,5.75
2019-03-19T22:03:34.048Z,5.67
2019-03-19T22:06:06.308Z,5.64
2019-03-19T22:08:38.461Z,5.52
2019-03-19T22:11:08.820Z,5.52
2019-03-19T22:13:39.348Z,5.48
2019-03-19T22:16:10.018Z,5.43
2019-03-19T22:18:40.312Z,5.38
2019-03-19T22:21:13.763Z,5.32
2019-03-19T22:23:44.223Z,5.27
2019-03-19T22:26:15.102Z,5.21
2019-03-19T22:28:45.703Z,5.13
2019-03-19T22:31:16.023Z,4.39
2019-03-19T22:33:46.757Z,4.99
2019-03-19T22:36:17.337Z,4.90
2019-03-19T22:38:47.728Z,4.89
2019-03-19T22:41:18.388Z,4.87
2019-03-19T22:43:48.947Z,4.79
2019-03-19T22:46:22.054Z,4.73
2019-03-19T22:48:52.577Z,4.70
2019-03-19T22:51:23.416Z,3.95
2019-03-19T22:53:53.602Z,4.60
2019-03-19T22:56:23.912Z,4.59
2019-03-19T22:58:54.334Z,4.65
2019-03-19T23:01:24.868Z,4.54
2019-03-19T23:03:55.536Z,4.48
2019-03-19T23:06:26.065Z,4.42
2019-03-19T23:08:56.241Z,4.46
2019-03-19T23:11:28.107Z,4.46
2019-03-19T23:13:58.540Z,4.43
2019-03-19T23:16:30.141Z,4.42
2019-03-19T23:19:00.881Z,4.34
2019-03-19T23:21:31.505Z,4.33
2019-03-19T23:24:06.612Z,4.34
2019-03-19T23:26:37.302Z,4.33
2019-03-19T23:29:07.489Z,4.33
2019-03-19T23:31:38.099Z,4.32
2019-03-19T23:34:10.710Z,4.27
2019-03-19T23:36:40.884Z,4.26
2019-03-19T23:39:11.411Z,4.26
2019-03-19T23:41:41.622Z,4.20
2019-03-19T23:44:11.928Z,4.21
2019-03-19T23:46:42.852Z,4.19
2019-03-19T23:49:14.355Z,4.21
2019-03-19T23:51:44.611Z,4.18
2019-03-19T23:54:15.505Z,4.17
2019-03-19T23:56:45.941Z,4.12
2019-03-19T23:59:16.162Z,4.10
